Terminal Aerodrome Forecast
Issued by NWS

Home | Current Version | Previous Version | Text Only | Print | Product List | Glossary Off
Versions: 1 2 3 4 5 6 7 8 9 10 11 12 13 14 15 16 17 18 19 20 21 22

000
FTUS43 KABR 280526 AAD
TAFMBG
TAF AMD
KMBG 280526Z 2805/2824 17007KT P6SM SCT090 BKN110
     FM281200 29013KT P6SM OVC250
     FM281500 29020G30KT P6SM FEW250=

USA.gov is the U.S. government's official web portal to all federal, state and local government web resources and services.